createdAt,value
2022-12-11T00:02:05.095Z,96059.25
2022-12-11T00:04:35.289Z,96050.84
2022-12-11T00:07:06.571Z,96060.94
2022-12-11T00:09:35.491Z,96046.88
2022-12-11T00:12:05.281Z,96048.97
2022-12-11T00:14:34.189Z,96051.94
2022-12-11T00:17:02.958Z,96059.75
2022-12-11T00:19:31.630Z,96055.44
2022-12-11T00:22:00.511Z,96067.63
2022-12-11T00:24:30.684Z,96056.41
2022-12-11T00:26:59.146Z,96068.56
2022-12-11T00:29:28.930Z,96063.06
2022-12-11T00:31:57.812Z,96052.97
2022-12-11T00:34:26.789Z,96075.22
2022-12-11T00:36:55.195Z,96065.41
2022-12-11T00:39:23.650Z,96069.16
2022-12-11T00:41:53.465Z,96074.28
2022-12-11T00:44:22.072Z,96076.81
2022-12-11T00:46:50.925Z,96064.97
2022-12-11T00:49:19.355Z,96070.97
2022-12-11T00:51:48.277Z,96068.56
2022-12-11T00:54:16.713Z,96076.22
2022-12-11T00:56:45.503Z,96073.53
2022-12-11T00:59:16.094Z,96071.06
2022-12-11T01:01:45.540Z,96076.56
2022-12-11T01:04:13.979Z,96077.72
2022-12-11T01:06:42.328Z,96077.53
2022-12-11T01:09:28.279Z,96079.22
2022-12-11T01:11:57.139Z,96065.88
2022-12-11T01:14:28.539Z,96081.75
2022-12-11T01:16:57.597Z,96089.69
2022-12-11T01:19:26.145Z,96083.41
2022-12-11T01:21:54.669Z,96096.47
2022-12-11T01:24:22.991Z,96098.72
2022-12-11T01:26:51.638Z,96097.41
2022-12-11T01:29:20.155Z,96099.19
2022-12-11T01:31:50.291Z,96099.03
2022-12-11T01:34:18.915Z,96097.09
2022-12-11T01:36:47.433Z,96093.38
2022-12-11T01:39:16.666Z,96087.94
2022-12-11T01:41:48.730Z,96083.44
2022-12-11T01:45:12.696Z,96092.38
2022-12-11T01:47:47.243Z,96097.75
2022-12-11T01:50:17.312Z,96101.38
2022-12-11T01:52:48.158Z,96095.66
2022-12-11T01:55:18.631Z,96101.44
2022-12-11T01:57:52.429Z,96103.25
2022-12-11T02:00:22.031Z,96111.59
2022-12-11T02:02:54.167Z,96112.63
2022-12-11T02:05:23.300Z,96105.09
2022-12-11T02:07:56.691Z,96108.28
2022-12-11T02:10:37.366Z,96108.88
2022-12-11T02:13:14.501Z,96106.50
2022-12-11T02:15:51.443Z,96105.50
2022-12-11T02:18:30.699Z,96112.03
2022-12-11T02:21:06.788Z,96106.25
2022-12-11T02:24:12.748Z,96122.88
2022-12-11T02:27:30.794Z,96102.34
2022-12-11T02:30:07.601Z,96110.63
2022-12-11T02:32:42.174Z,96119.66
2022-12-11T02:35:17.801Z,96113.34
2022-12-11T02:37:48.505Z,96110.38
2022-12-11T02:40:22.911Z,96119.19
2022-12-11T02:42:53.046Z,96107.50
2022-12-11T02:45:24.839Z,96123.66
2022-12-11T02:47:54.992Z,96111.63
2022-12-11T02:50:25.774Z,96101.69
2022-12-11T02:52:57.678Z,96113.72
2022-12-11T02:55:30.211Z,96112.31
2022-12-11T02:58:09.494Z,96104.38
2022-12-11T03:00:40.306Z,96114.22
2022-12-11T03:03:12.508Z,96116.38
2022-12-11T03:05:41.728Z,96120.47
2022-12-11T03:08:10.489Z,96106.25
2022-12-11T03:10:40.094Z,96122.31
2022-12-11T03:13:09.091Z,96117.81
2022-12-11T03:15:53.746Z,96127.81
2022-12-11T03:18:34.564Z,96132.34
2022-12-11T03:21:08.316Z,96124.41
2022-12-11T03:23:46.262Z,96120.84
2022-12-11T03:26:19.191Z,96120.78
2022-12-11T03:28:52.688Z,96126.81
2022-12-11T03:31:29.771Z,96113.41
2022-12-11T03:34:03.655Z,96122.19
2022-12-11T03:36:36.448Z,96122.03
2022-12-11T03:39:10.492Z,96129.97
2022-12-11T03:41:40.456Z,96131.78
2022-12-11T03:44:09.560Z,96133.94
2022-12-11T03:46:42.912Z,96138.53
2022-12-11T03:49:17.944Z,96130.28
2022-12-11T03:51:50.053Z,96143.88
2022-12-11T03:54:19.373Z,96145.00
2022-12-11T03:56:50.397Z,96142.47
2022-12-11T03:59:18.961Z,96140.88
2022-12-11T04:01:50.159Z,96139.94
2022-12-11T04:04:19.021Z,96131.66
2022-12-11T04:06:47.478Z,96127.31
2022-12-11T04:09:15.828Z,96130.06
2022-12-11T04:11:44.161Z,96136.75
2022-12-11T04:14:32.157Z,96133.59
2022-12-11T04:17:03.266Z,96139.28
2022-12-11T04:19:49.163Z,96143.47
2022-12-11T04:22:35.773Z,96142.25
2022-12-11T04:25:07.264Z,96152.28
2022-12-11T04:27:50.477Z,96156.34
2022-12-11T04:30:21.311Z,96159.53
2022-12-11T04:32:52.224Z,96159.72
2022-12-11T04:35:21.523Z,96159.75
2022-12-11T04:37:50.199Z,96166.66
2022-12-11T04:40:21.421Z,96151.28
2022-12-11T04:42:50.916Z,96160.16
2022-12-11T04:45:19.847Z,96151.13
2022-12-11T04:47:48.383Z,96153.34
2022-12-11T04:50:19.486Z,96145.09
2022-12-11T04:52:47.847Z,96137.78
2022-12-11T04:55:16.719Z,96140.59
2022-12-11T04:57:45.365Z,96138.59
2022-12-11T05:00:15.453Z,96138.03
2022-12-11T05:02:44.312Z,96139.59
2022-12-11T05:05:14.005Z,96141.19
2022-12-11T05:07:43.971Z,96136.06
2022-12-11T05:10:12.346Z,96137.84
2022-12-11T05:12:40.734Z,96143.16
2022-12-11T05:15:10.518Z,96145.94
2022-12-11T05:17:39.202Z,96138.81
2022-12-11T05:20:10.262Z,96140.59
2022-12-11T05:22:39.020Z,96145.91
2022-12-11T05:25:09.817Z,96127.56
2022-12-11T05:27:38.470Z,96126.78
2022-12-11T05:30:09.387Z,96129.34
2022-12-11T05:32:37.826Z,96125.59
2022-12-11T05:35:07.169Z,96124.81
2022-12-11T05:37:35.588Z,96125.78
2022-12-11T05:40:06.241Z,96125.41
2022-12-11T05:42:36.869Z,96129.56
2022-12-11T05:45:06.100Z,96134.84
2022-12-11T05:47:34.475Z,96137.16
2022-12-11T05:50:02.867Z,96132.81
2022-12-11T05:52:33.542Z,96137.00
2022-12-11T05:55:03.237Z,96150.56
2022-12-11T05:57:31.572Z,96145.75
2022-12-11T06:00:01.289Z,96154.72
2022-12-11T06:02:29.797Z,96154.28
2022-12-11T06:04:58.173Z,96151.50
2022-12-11T06:07:26.589Z,96149.91
2022-12-11T06:09:55.143Z,96150.28
2022-12-11T06:12:23.500Z,96151.28
2022-12-11T06:14:51.753Z,96149.16
2022-12-11T06:17:22.362Z,96155.06
2022-12-11T06:19:50.753Z,96148.97
2022-12-11T06:22:19.029Z,96147.22
2022-12-11T06:24:48.075Z,96140.56
2022-12-11T06:27:16.395Z,96148.72
2022-12-11T06:29:44.674Z,96147.38
2022-12-11T06:32:13.001Z,96154.44
2022-12-11T06:34:42.696Z,96146.00
2022-12-11T06:37:11.770Z,96145.22
2022-12-11T06:39:40.069Z,96157.84
2022-12-11T06:42:08.401Z,96147.38
2022-12-11T06:44:36.655Z,96152.03
2022-12-11T06:47:05.669Z,96146.06
2022-12-11T06:49:34.055Z,96149.88
2022-12-11T06:52:03.719Z,96154.81
2022-12-11T06:54:32.183Z,96159.53
2022-12-11T06:57:00.495Z,96165.66
2022-12-11T06:59:28.819Z,96167.44
2022-12-11T07:01:57.710Z,96162.94
2022-12-11T07:04:27.714Z,96157.66
2022-12-11T07:06:56.051Z,96168.31
2022-12-11T07:09:26.205Z,96169.31
2022-12-11T07:11:54.807Z,96172.91
2022-12-11T07:14:23.139Z,96181.59
2022-12-11T07:16:51.931Z,96165.94
2022-12-11T07:19:20.488Z,96165.50
2022-12-11T07:21:48.807Z,96175.53
2022-12-11T07:24:17.117Z,96173.53
2022-12-11T07:26:47.313Z,96168.56
2022-12-11T07:29:15.599Z,96169.78
2022-12-11T07:31:46.544Z,96174.88
2022-12-11T07:34:15.332Z,96167.94
2022-12-11T07:36:44.678Z,96167.16
2022-12-11T07:39:13.493Z,96161.88
2022-12-11T07:41:43.885Z,96170.13
2022-12-11T07:44:14.700Z,96176.88
2022-12-11T07:46:43.026Z,96171.00
2022-12-11T07:49:11.376Z,96176.69
2022-12-11T07:51:40.531Z,96177.03
2022-12-11T07:54:16.841Z,96173.31
2022-12-11T07:56:49.883Z,96185.88
2022-12-11T07:59:23.044Z,96174.09
2022-12-11T08:01:53.766Z,96184.59
2022-12-11T08:04:22.181Z,96188.28
2022-12-11T08:06:50.722Z,96191.47
2022-12-11T08:09:22.637Z,96193.03
2022-12-11T08:11:51.720Z,96186.72
2022-12-11T08:14:20.741Z,96196.31
2022-12-11T08:16:57.538Z,96207.25
2022-12-11T08:19:28.229Z,96222.50
2022-12-11T08:21:56.712Z,96222.06
2022-12-11T08:24:25.066Z,96224.03
2022-12-11T08:26:53.363Z,96225.59
2022-12-11T08:29:22.905Z,96219.22
2022-12-11T08:31:51.544Z,96224.84
2022-12-11T08:34:21.452Z,96227.84
2022-12-11T08:36:49.746Z,96230.63
2022-12-11T08:39:18.051Z,96231.97
2022-12-11T08:41:46.469Z,96242.38
2022-12-11T08:44:16.988Z,96234.59
2022-12-11T08:46:46.521Z,96232.13
2022-12-11T08:49:14.884Z,96233.44
2022-12-11T08:51:44.684Z,96232.63
2022-12-11T08:54:13.515Z,96230.00
2022-12-11T08:56:42.056Z,96235.75
2022-12-11T08:59:11.606Z,96243.69
2022-12-11T09:01:40.912Z,96237.44
2022-12-11T09:04:09.300Z,96246.16
2022-12-11T09:06:37.670Z,96244.78
2022-12-11T09:09:07.520Z,96245.78
2022-12-11T09:11:38.258Z,96231.78
2022-12-11T09:14:08.380Z,96235.13
2022-12-11T09:16:40.244Z,96243.31
2022-12-11T09:19:13.443Z,96251.59
2022-12-11T09:21:43.933Z,96236.19
2022-12-11T09:24:15.127Z,96246.94
2022-12-11T09:26:43.937Z,96236.06
2022-12-11T09:29:12.808Z,96250.06
2022-12-11T09:31:41.931Z,96247.06
2022-12-11T09:34:14.207Z,96240.47
2022-12-11T09:36:44.224Z,96236.41
2022-12-11T09:39:16.158Z,96235.19
2022-12-11T09:41:55.356Z,96232.31
2022-12-11T09:44:35.863Z,96225.75
2022-12-11T09:47:04.601Z,96221.72
2022-12-11T09:49:40.316Z,96216.09
2022-12-11T09:52:15.664Z,96213.50
2022-12-11T09:54:50.753Z,96205.97
2022-12-11T09:57:39.871Z,96200.91
2022-12-11T10:00:29.696Z,96202.25
2022-12-11T10:03:22.150Z,96193.81
2022-12-11T10:06:01.155Z,96193.59
2022-12-11T10:08:41.384Z,96198.81
2022-12-11T10:11:56.874Z,96193.78
2022-12-11T10:14:41.142Z,96187.03
2022-12-11T10:17:17.202Z,96183.13
2022-12-11T10:19:46.475Z,96163.97
2022-12-11T10:22:23.250Z,96176.06
2022-12-11T10:25:10.645Z,96181.56
2022-12-11T10:27:44.776Z,96181.84
2022-12-11T10:30:19.445Z,96190.47
2022-12-11T10:33:07.416Z,96170.88
2022-12-11T10:35:42.462Z,96165.88
2022-12-11T10:38:17.480Z,96172.41
2022-12-11T10:40:52.513Z,96160.81
2022-12-11T10:43:34.570Z,96167.19
2022-12-11T10:46:03.663Z,96155.31
2022-12-11T10:48:32.009Z,96147.78
2022-12-11T10:51:05.601Z,96149.72
2022-12-11T10:53:39.557Z,96150.25
2022-12-11T10:56:09.006Z,96154.81
2022-12-11T10:58:50.465Z,96149.41
2022-12-11T11:01:24.194Z,96147.13
2022-12-11T11:03:59.970Z,96150.47
2022-12-11T11:06:31.093Z,96137.38
2022-12-11T11:09:03.286Z,96137.34
2022-12-11T11:11:35.274Z,96130.94
2022-12-11T11:14:17.527Z,96133.38
2022-12-11T11:16:48.038Z,96130.91
2022-12-11T11:19:22.711Z,96115.97
2022-12-11T11:21:54.797Z,96129.84
2022-12-11T11:24:31.450Z,96121.25
2022-12-11T11:27:15.476Z,96120.91
2022-12-11T11:29:51.562Z,96113.31
2022-12-11T11:32:28.064Z,96119.00
2022-12-11T11:35:18.374Z,96114.59
2022-12-11T11:37:56.245Z,96112.06
2022-12-11T11:40:30.645Z,96114.38
2022-12-11T11:43:12.435Z,96107.59
2022-12-11T11:45:51.314Z,96102.44
2022-12-11T11:48:35.343Z,96111.91
2022-12-11T11:51:16.277Z,96106.41
2022-12-11T11:53:53.492Z,96097.53
2022-12-11T11:56:27.180Z,96095.16
2022-12-11T11:59:10.282Z,96098.53
2022-12-11T12:01:43.160Z,96090.81
2022-12-11T12:04:14.258Z,96094.94
2022-12-11T12:07:10.707Z,96099.78
2022-12-11T12:09:49.172Z,96095.59
2022-12-11T12:12:33.827Z,96096.59
2022-12-11T12:15:25.495Z,96092.66
2022-12-11T12:17:58.134Z,96092.56
2022-12-11T12:20:38.980Z,96093.03
2022-12-11T12:23:37.858Z,96086.72
2022-12-11T12:26:17.397Z,96081.56
2022-12-11T12:28:53.963Z,96084.66
2022-12-11T12:31:44.984Z,96085.13
2022-12-11T12:34:30.953Z,96085.59
2022-12-11T12:37:09.092Z,96085.19
2022-12-11T12:39:50.510Z,96082.56
2022-12-11T12:42:31.958Z,96093.56
2022-12-11T12:45:07.375Z,96080.34
2022-12-11T12:47:37.683Z,96082.84
2022-12-11T12:50:14.014Z,96078.56
2022-12-11T12:52:43.859Z,96079.09
2022-12-11T12:55:27.314Z,96078.88
2022-12-11T12:57:58.442Z,96077.03
2022-12-11T13:00:35.104Z,96083.69
2022-12-11T13:03:14.450Z,96076.84
2022-12-11T13:05:57.536Z,96079.75
2022-12-11T13:08:27.702Z,96066.94
2022-12-11T13:11:03.576Z,96068.88
2022-12-11T13:13:39.252Z,96068.31
2022-12-11T13:16:24.776Z,96072.91
2022-12-11T13:18:55.717Z,96068.63
2022-12-11T13:21:32.912Z,96060.34
2022-12-11T13:24:25.708Z,96058.78
2022-12-11T13:26:54.338Z,96055.97
2022-12-11T13:29:36.539Z,96057.44
2022-12-11T13:32:24.069Z,96057.19
2022-12-11T13:34:58.834Z,96056.63
2022-12-11T13:37:33.077Z,96048.41
2022-12-11T13:40:02.469Z,96055.97
2022-12-11T13:42:35.798Z,96049.13
2022-12-11T13:45:07.317Z,96064.50
2022-12-11T13:47:37.844Z,96055.41
2022-12-11T13:50:25.134Z,96065.19
2022-12-11T13:52:59.594Z,96061.22
2022-12-11T13:55:31.707Z,96067.41
2022-12-11T13:58:00.553Z,96066.81
2022-12-11T14:00:32.740Z,96078.72
2022-12-11T14:03:07.392Z,96060.25
2022-12-11T14:05:36.552Z,96065.84
2022-12-11T14:08:11.190Z,96070.94
2022-12-11T14:10:41.434Z,96069.88
2022-12-11T14:13:19.326Z,96077.97
2022-12-11T14:15:48.363Z,96082.19
2022-12-11T14:18:22.391Z,96082.16
2022-12-11T14:20:56.351Z,96082.97
2022-12-11T14:23:29.070Z,96084.16
2022-12-11T14:26:00.500Z,96094.06
2022-12-11T14:28:31.333Z,96085.38
2022-12-11T14:31:01.992Z,96097.91
2022-12-11T14:33:34.232Z,96096.34
2022-12-11T14:36:03.388Z,96103.69
2022-12-11T14:38:37.805Z,96097.34
2022-12-11T14:41:13.727Z,96097.34
2022-12-11T14:43:48.430Z,96101.94
2022-12-11T14:46:23.418Z,96102.63
2022-12-11T14:49:00.957Z,96094.03
2022-12-11T14:51:35.808Z,96100.53
2022-12-11T14:54:07.397Z,96107.41
2022-12-11T14:56:36.038Z,96111.84
2022-12-11T14:59:09.088Z,96117.25
2022-12-11T15:01:39.304Z,96111.59
2022-12-11T15:04:24.534Z,96110.94
2022-12-11T15:06:53.309Z,96116.47
2022-12-11T15:09:28.847Z,96110.66
2022-12-11T15:12:00.617Z,96121.94
2022-12-11T15:14:29.767Z,96106.34
2022-12-11T15:16:59.202Z,96114.31
2022-12-11T15:19:34.125Z,96107.44
2022-12-11T15:22:08.237Z,96105.91
2022-12-11T15:24:42.088Z,96097.81
2022-12-11T15:27:27.424Z,96107.94
2022-12-11T15:29:56.832Z,96107.84
2022-12-11T15:32:25.696Z,96100.75
2022-12-11T15:34:55.991Z,96078.81
2022-12-11T15:37:26.968Z,96088.34
2022-12-11T15:40:00.173Z,96084.22
2022-12-11T15:42:32.411Z,96080.72
2022-12-11T15:45:01.366Z,96080.38
2022-12-11T15:47:32.154Z,96073.44
2022-12-11T15:50:03.523Z,96069.72
2022-12-11T15:52:34.446Z,96080.38
2022-12-11T15:55:04.731Z,96064.97
2022-12-11T15:57:33.102Z,96065.41
2022-12-11T16:00:01.924Z,96054.56
2022-12-11T16:02:30.203Z,96056.13
2022-12-11T16:04:58.467Z,96058.69
2022-12-11T16:07:28.255Z,96057.94
2022-12-11T16:09:56.772Z,96059.72
2022-12-11T16:12:26.572Z,96067.44
2022-12-11T16:14:54.886Z,96064.88
2022-12-11T16:17:24.324Z,96060.53
2022-12-11T16:19:55.473Z,96066.47
2022-12-11T16:22:23.882Z,96066.25
2022-12-11T16:24:55.616Z,96060.75
2022-12-11T16:27:26.049Z,96057.97
2022-12-11T16:29:56.646Z,96070.00
2022-12-11T16:32:24.938Z,96065.88
2022-12-11T16:34:55.371Z,96057.59
2022-12-11T16:37:23.699Z,96057.38
2022-12-11T16:39:52.010Z,96063.91
2022-12-11T16:42:21.278Z,96051.47
2022-12-11T16:44:51.456Z,96057.19
2022-12-11T16:47:19.854Z,96047.75
2022-12-11T16:49:48.200Z,96044.19
2022-12-11T16:52:21.941Z,96046.97
2022-12-11T16:54:50.779Z,96040.84
2022-12-11T16:57:19.246Z,96040.44
2022-12-11T16:59:50.183Z,96053.81
2022-12-11T17:02:19.317Z,96052.03
2022-12-11T17:04:53.728Z,96050.84
2022-12-11T17:07:22.368Z,96044.72
2022-12-11T17:09:50.900Z,96042.91
2022-12-11T17:12:23.150Z,96051.94
2022-12-11T17:14:53.152Z,96044.25
2022-12-11T17:17:22.784Z,96034.41
2022-12-11T17:19:52.180Z,96031.47
2022-12-11T17:22:20.860Z,96025.19
2022-12-11T17:24:49.592Z,96030.09
2022-12-11T17:27:18.348Z,96035.00
2022-12-11T17:29:49.464Z,96040.88
2022-12-11T17:32:19.942Z,96034.63
2022-12-11T17:34:50.462Z,96044.72
2022-12-11T17:37:19.253Z,96054.38
2022-12-11T17:39:52.693Z,96050.94
2022-12-11T17:42:21.044Z,96053.88
2022-12-11T17:44:53.709Z,96045.19
2022-12-11T17:47:28.404Z,96053.28
2022-12-11T17:49:57.041Z,96043.06
2022-12-11T17:52:30.906Z,96046.81
2022-12-11T17:55:03.169Z,96035.00
2022-12-11T17:57:32.024Z,96038.91
2022-12-11T18:00:01.000Z,96040.13
2022-12-11T18:02:35.337Z,96043.84
2022-12-11T18:05:05.355Z,96042.09
2022-12-11T18:07:33.679Z,96048.00
2022-12-11T18:10:02.120Z,96046.41
2022-12-11T18:12:32.833Z,96035.00
2022-12-11T18:15:03.137Z,96040.53
2022-12-11T18:17:32.857Z,96043.63
2022-12-11T18:20:03.816Z,96045.31
2022-12-11T18:22:32.446Z,96049.56
2022-12-11T18:25:03.904Z,96052.31
2022-12-11T18:27:38.496Z,96053.28
2022-12-11T18:30:08.465Z,96036.75
2022-12-11T18:32:38.165Z,96034.22
2022-12-11T18:35:07.890Z,96032.47
2022-12-11T18:37:36.953Z,96034.41
2022-12-11T18:40:10.388Z,96038.91
2022-12-11T18:42:38.975Z,96035.03
2022-12-11T18:45:09.478Z,96036.00
2022-12-11T18:47:39.592Z,96029.72
2022-12-11T18:50:09.343Z,96028.97
2022-12-11T18:52:37.875Z,96026.44
2022-12-11T18:55:07.796Z,96032.72
2022-12-11T18:57:37.234Z,96043.16
2022-12-11T19:00:07.652Z,96047.72
2022-12-11T19:02:39.371Z,96035.25
2022-12-11T19:05:11.072Z,96034.06
2022-12-11T19:07:40.130Z,96040.16
2022-12-11T19:10:10.083Z,96035.78
2022-12-11T19:12:39.636Z,96034.38
2022-12-11T19:15:10.813Z,96037.34
2022-12-11T19:17:42.899Z,96041.09
2022-12-11T19:20:40.544Z,96040.69
2022-12-11T19:23:02.521Z,96040.72
2022-12-11T19:25:31.099Z,96035.81
2022-12-11T19:28:01.561Z,96042.84
2022-12-11T19:30:31.056Z,96054.97
2022-12-11T19:33:01.279Z,96058.81
2022-12-11T19:35:30.565Z,96061.09
2022-12-11T19:37:59.515Z,96059.84
2022-12-11T19:40:28.475Z,96063.53
2022-12-11T19:42:57.133Z,96052.78
2022-12-11T19:45:27.040Z,96069.00
2022-12-11T19:47:55.400Z,96053.34
2022-12-11T19:50:25.279Z,96041.84
2022-12-11T19:52:55.689Z,96042.53
2022-12-11T19:55:30.506Z,96042.19
2022-12-11T19:57:59.093Z,96038.69
2022-12-11T20:00:28.182Z,96053.69
2022-12-11T20:02:56.772Z,96050.66
2022-12-11T20:05:26.864Z,96062.03
2022-12-11T20:07:55.214Z,96062.03
2022-12-11T20:10:23.785Z,96069.22
2022-12-11T20:12:52.607Z,96057.47
2022-12-11T20:15:21.187Z,96066.69
2022-12-11T20:17:54.355Z,96066.00
2022-12-11T20:20:23.359Z,96058.88
2022-12-11T20:22:54.894Z,96064.28
2022-12-11T20:25:23.992Z,96069.13
2022-12-11T20:27:52.638Z,96059.56
2022-12-11T20:30:21.404Z,96066.50
2022-12-11T20:32:49.973Z,96065.38
2022-12-11T20:35:18.682Z,96063.84
2022-12-11T20:37:48.470Z,96076.63
2022-12-11T20:40:18.497Z,96068.56
2022-12-11T20:42:47.313Z,96059.69
2022-12-11T20:45:15.877Z,96054.78
2022-12-11T20:47:44.443Z,96061.06
2022-12-11T20:50:12.930Z,96062.03
2022-12-11T20:52:41.785Z,96071.25
2022-12-11T20:55:14.945Z,96062.34
2022-12-11T20:57:45.427Z,96067.03
2022-12-11T21:00:15.776Z,96062.06
2022-12-11T21:02:45.484Z,96062.47
2022-12-11T21:05:15.355Z,96048.09
2022-12-11T21:07:44.358Z,96038.91
2022-12-11T21:10:14.672Z,96058.56
2022-12-11T21:12:44.678Z,96060.97
2022-12-11T21:15:14.382Z,96074.31
2022-12-11T21:17:43.110Z,96072.00
2022-12-11T21:20:13.100Z,96063.72
2022-12-11T21:22:41.636Z,96066.06
2022-12-11T21:25:11.444Z,96059.78
2022-12-11T21:27:40.283Z,96073.22
2022-12-11T21:30:14.986Z,96072.44
2022-12-11T21:32:44.841Z,96068.88
2022-12-11T21:35:13.939Z,96063.78
2022-12-11T21:37:43.717Z,96064.22
2022-12-11T21:40:13.484Z,96059.13
2022-12-11T21:42:42.704Z,96069.38
2022-12-11T21:45:52.074Z,96074.28
2022-12-11T21:48:02.146Z,96080.66
2022-12-11T21:50:30.856Z,96071.97
2022-12-11T21:52:59.672Z,96072.97
2022-12-11T21:55:28.224Z,96070.59
2022-12-11T21:57:58.612Z,96068.63
2022-12-11T22:00:29.126Z,96069.03
2022-12-11T22:02:58.436Z,96069.06
2022-12-11T22:05:27.333Z,96076.13
2022-12-11T22:07:56.028Z,96054.66
2022-12-11T22:10:24.919Z,96056.81
2022-12-11T22:12:53.783Z,96057.59
2022-12-11T22:15:22.370Z,96062.72
2022-12-11T22:17:52.283Z,96059.59
2022-12-11T22:20:21.086Z,96070.00
2022-12-11T22:22:49.807Z,96066.66
2022-12-11T22:25:19.617Z,96062.16
2022-12-11T22:27:48.017Z,96067.06
2022-12-11T22:30:18.645Z,96059.97
2022-12-11T22:32:49.167Z,96052.06
2022-12-11T22:35:21.840Z,96055.41
2022-12-11T22:37:54.013Z,96059.19
2022-12-11T22:40:22.443Z,96057.59
2022-12-11T22:42:50.883Z,96053.25
2022-12-11T22:45:19.899Z,96047.34
2022-12-11T22:47:48.423Z,96050.28
2022-12-11T22:50:19.565Z,96050.50
2022-12-11T22:52:48.054Z,96060.75
2022-12-11T22:55:17.672Z,96069.03
2022-12-11T22:57:46.157Z,96058.78
2022-12-11T23:00:18.808Z,96049.31
2022-12-11T23:02:47.437Z,96061.91
2022-12-11T23:05:16.598Z,96055.63
2022-12-11T23:07:46.936Z,96055.25
2022-12-11T23:10:16.620Z,96062.31
2022-12-11T23:12:45.053Z,96053.28
2022-12-11T23:15:13.722Z,96061.75
2022-12-11T23:17:42.355Z,96069.81
2022-12-11T23:20:14.086Z,96059.19
2022-12-11T23:22:45.318Z,96055.25
2022-12-11T23:25:15.107Z,96058.00
2022-12-11T23:27:43.918Z,96053.66
2022-12-11T23:30:15.315Z,96061.53
2022-12-11T23:32:43.698Z,96055.00
2022-12-11T23:35:13.943Z,96055.22
2022-12-11T23:37:42.911Z,96067.25
2022-12-11T23:40:14.655Z,96059.94
2022-12-11T23:42:43.537Z,96064.47
2022-12-11T23:45:14.307Z,96062.69
2022-12-11T23:47:44.125Z,96060.75
2022-12-11T23:50:13.207Z,96046.94
2022-12-11T23:52:42.576Z,96062.13
2022-12-11T23:55:13.786Z,96056.22
2022-12-11T23:57:43.154Z,96054.06
